sensor_id;sensor_type;location;lat;lon;timestamp;temperature;humidity
19878;DHT22;10101;52.204;9.910;2023-01-19T00:00:14;-0.50;1.00
19878;DHT22;10101;52.204;9.910;2023-01-19T00:02:42;-0.30;1.00
19878;DHT22;10101;52.204;9.910;2023-01-19T00:05:12;-0.30;1.00
19878;DHT22;10101;52.204;9.910;2023-01-19T00:07:39;-0.30;1.00
19878;DHT22;10101;52.204;9.910;2023-01-19T00:10:07;-0.30;1.00
19878;DHT22;10101;52.204;9.910;2023-01-19T00:12:35;-0.30;1.00
19878;DHT22;10101;52.204;9.910;2023-01-19T00:15:02;-0.40;1.00
19878;DHT22;10101;52.204;9.910;2023-01-19T00:17:29;-0.30;1.00
19878;DHT22;10101;52.204;9.910;2023-01-19T00:19:55;-0.30;1.00
19878;DHT22;10101;52.204;9.910;2023-01-19T00:22:22;-0.30;1.00
19878;DHT22;10101;52.204;9.910;2023-01-19T00:24:49;-0.30;1.00
19878;DHT22;10101;52.204;9.910;2023-01-19T00:27:15;-0.30;1.00
19878;DHT22;10101;52.204;9.910;2023-01-19T00:29:44;-0.30;21.90
19878;DHT22;10101;52.204;9.910;2023-01-19T00:32:10;-0.20;1.00
19878;DHT22;10101;52.204;9.910;2023-01-19T00:34:37;-0.20;3.20
19878;DHT22;10101;52.204;9.910;2023-01-19T00:37:07;-0.20;59.80
19878;DHT22;10101;52.204;9.910;2023-01-19T00:39:34;-0.20;10.00
19878;DHT22;10101;52.204;9.910;2023-01-19T00:42:00;-0.30;1.00
19878;DHT22;10101;52.204;9.910;2023-01-19T00:44:46;-0.30;1.00
19878;DHT22;10101;52.204;9.910;2023-01-19T00:47:13;-0.20;96.10
19878;DHT22;10101;52.204;9.910;2023-01-19T00:49:39;-0.20;1.00
19878;DHT22;10101;52.204;9.910;2023-01-19T00:52:06;-0.30;1.00
19878;DHT22;10101;52.204;9.910;2023-01-19T00:54:33;-0.20;1.00
19878;DHT22;10101;52.204;9.910;2023-01-19T00:57:00;-0.20;1.00
19878;DHT22;10101;52.204;9.910;2023-01-19T00:59:27;-0.20;1.00
19878;DHT22;10101;52.204;9.910;2023-01-19T01:01:55;-0.20;19.70
19878;DHT22;10101;52.204;9.910;2023-01-19T01:04:22;-0.10;1.00
19878;DHT22;10101;52.204;9.910;2023-01-19T01:06:48;-0.10;1.00
19878;DHT22;10101;52.204;9.910;2023-01-19T01:09:15;-0.10;1.00
19878;DHT22;10101;52.204;9.910;2023-01-19T01:11:42;0.00;1.00
19878;DHT22;10101;52.204;9.910;2023-01-19T01:14:11;0.20;1.00
19878;DHT22;10101;52.204;9.910;2023-01-19T01:16:38;0.20;1.00
19878;DHT22;10101;52.204;9.910;2023-01-19T01:19:06;0.20;1.00
19878;DHT22;10101;52.204;9.910;2023-01-19T01:21:33;0.20;1.00
19878;DHT22;10101;52.204;9.910;2023-01-19T01:24:00;0.30;1.00
19878;DHT22;10101;52.204;9.910;2023-01-19T01:26:27;0.20;99.90
19878;DHT22;10101;52.204;9.910;2023-01-19T01:28:54;0.20;99.90
19878;DHT22;10101;52.204;9.910;2023-01-19T01:31:20;0.20;99.90
19878;DHT22;10101;52.204;9.910;2023-01-19T01:33:47;0.20;99.90
19878;DHT22;10101;52.204;9.910;2023-01-19T01:36:15;0.20;99.90
19878;DHT22;10101;52.204;9.910;2023-01-19T01:38:43;0.20;99.90
19878;DHT22;10101;52.204;9.910;2023-01-19T01:41:10;0.30;99.90
19878;DHT22;10101;52.204;9.910;2023-01-19T01:43:43;0.30;97.40
19878;DHT22;10101;52.204;9.910;2023-01-19T01:46:11;0.40;33.50
19878;DHT22;10101;52.204;9.910;2023-01-19T01:48:41;0.40;1.00
19878;DHT22;10101;52.204;9.910;2023-01-19T01:51:13;0.30;1.00
19878;DHT22;10101;52.204;9.910;2023-01-19T01:54:01;0.30;1.00
19878;DHT22;10101;52.204;9.910;2023-01-19T01:56:34;0.20;1.00
19878;DHT22;10101;52.204;9.910;2023-01-19T01:59:04;0.30;1.00
19878;DHT22;10101;52.204;9.910;2023-01-19T02:01:33;0.30;1.00
19878;DHT22;10101;52.204;9.910;2023-01-19T02:04:17;0.30;1.00
19878;DHT22;10101;52.204;9.910;2023-01-19T02:06:46;0.30;1.00
19878;DHT22;10101;52.204;9.910;2023-01-19T02:09:34;0.40;1.00
19878;DHT22;10101;52.204;9.910;2023-01-19T02:12:20;0.50;1.00
19878;DHT22;10101;52.204;9.910;2023-01-19T02:15:05;0.60;1.00
19878;DHT22;10101;52.204;9.910;2023-01-19T02:17:32;0.50;1.00
19878;DHT22;10101;52.204;9.910;2023-01-19T02:19:59;0.40;1.00
19878;DHT22;10101;52.204;9.910;2023-01-19T02:22:30;0.40;1.00
19878;DHT22;10101;52.204;9.910;2023-01-19T02:25:02;0.40;1.00
19878;DHT22;10101;52.204;9.910;2023-01-19T02:27:30;0.40;1.00
19878;DHT22;10101;52.204;9.910;2023-01-19T02:29:57;0.50;1.00
19878;DHT22;10101;52.204;9.910;2023-01-19T02:32:24;0.40;1.00
19878;DHT22;10101;52.204;9.910;2023-01-19T02:34:51;0.30;1.00
19878;DHT22;10101;52.204;9.910;2023-01-19T02:37:18;0.30;1.00
19878;DHT22;10101;52.204;9.910;2023-01-19T02:39:49;0.40;1.00
19878;DHT22;10101;52.204;9.910;2023-01-19T02:42:21;0.30;1.00
19878;DHT22;10101;52.204;9.910;2023-01-19T02:44:51;0.40;99.90
19878;DHT22;10101;52.204;9.910;2023-01-19T02:47:19;0.40;99.90
19878;DHT22;10101;52.204;9.910;2023-01-19T02:49:53;0.40;99.90
19878;DHT22;10101;52.204;9.910;2023-01-19T02:52:20;0.40;99.90
19878;DHT22;10101;52.204;9.910;2023-01-19T02:54:56;0.30;99.90
19878;DHT22;10101;52.204;9.910;2023-01-19T02:57:37;0.20;99.90
19878;DHT22;10101;52.204;9.910;2023-01-19T03:00:18;0.20;99.90
19878;DHT22;10101;52.204;9.910;2023-01-19T03:02:53;0.10;99.90
19878;DHT22;10101;52.204;9.910;2023-01-19T03:05:33;0.10;99.90
19878;DHT22;10101;52.204;9.910;2023-01-19T03:08:11;0.00;99.90
19878;DHT22;10101;52.204;9.910;2023-01-19T03:10:46;-0.20;99.90
19878;DHT22;10101;52.204;9.910;2023-01-19T03:13:22;-0.20;1.00
19878;DHT22;10101;52.204;9.910;2023-01-19T03:15:55;-0.30;1.00
19878;DHT22;10101;52.204;9.910;2023-01-19T03:18:25;-0.40;1.00
19878;DHT22;10101;52.204;9.910;2023-01-19T03:20:55;-0.40;1.00
19878;DHT22;10101;52.204;9.910;2023-01-19T03:23:26;-0.40;1.00
19878;DHT22;10101;52.204;9.910;2023-01-19T03:25:56;-0.40;1.00
19878;DHT22;10101;52.204;9.910;2023-01-19T03:28:28;-0.30;99.90
19878;DHT22;10101;52.204;9.910;2023-01-19T03:30:58;-0.30;99.90
19878;DHT22;10101;52.204;9.910;2023-01-19T03:33:29;-0.20;99.90
19878;DHT22;10101;52.204;9.910;2023-01-19T03:36:00;-0.10;1.00
19878;DHT22;10101;52.204;9.910;2023-01-19T03:38:36;-0.10;1.00
19878;DHT22;10101;52.204;9.910;2023-01-19T03:41:07;0.00;1.00
19878;DHT22;10101;52.204;9.910;2023-01-19T03:43:37;0.10;1.00
19878;DHT22;10101;52.204;9.910;2023-01-19T03:46:04;0.20;1.00
19878;DHT22;10101;52.204;9.910;2023-01-19T03:48:32;0.30;1.00
19878;DHT22;10101;52.204;9.910;2023-01-19T03:51:02;0.50;1.00
19878;DHT22;10101;52.204;9.910;2023-01-19T03:53:29;0.30;1.00
19878;DHT22;10101;52.204;9.910;2023-01-19T03:55:55;0.70;1.00
19878;DHT22;10101;52.204;9.910;2023-01-19T03:58:22;0.60;1.00
19878;DHT22;10101;52.204;9.910;2023-01-19T04:00:50;0.70;1.00
19878;DHT22;10101;52.204;9.910;2023-01-19T04:03:17;0.80;1.00
19878;DHT22;10101;52.204;9.910;2023-01-19T04:05:44;0.90;1.00
19878;DHT22;10101;52.204;9.910;2023-01-19T04:08:11;0.90;1.00
19878;DHT22;10101;52.204;9.910;2023-01-19T04:10:38;0.90;1.00
19878;DHT22;10101;52.204;9.910;2023-01-19T04:13:05;1.00;1.00
19878;DHT22;10101;52.204;9.910;2023-01-19T04:15:32;1.00;1.00
19878;DHT22;10101;52.204;9.910;2023-01-19T04:18:00;1.00;99.90
19878;DHT22;10101;52.204;9.910;2023-01-19T04:20:27;0.90;99.90
19878;DHT22;10101;52.204;9.910;2023-01-19T04:22:57;0.90;99.90
19878;DHT22;10101;52.204;9.910;2023-01-19T04:25:24;1.00;99.90
19878;DHT22;10101;52.204;9.910;2023-01-19T04:27:51;0.90;54.10
19878;DHT22;10101;52.204;9.910;2023-01-19T04:30:19;0.80;1.00
19878;DHT22;10101;52.204;9.910;2023-01-19T04:32:47;0.80;1.00
19878;DHT22;10101;52.204;9.910;2023-01-19T04:35:15;0.80;1.00
19878;DHT22;10101;52.204;9.910;2023-01-19T04:37:42;0.80;1.00
19878;DHT22;10101;52.204;9.910;2023-01-19T04:40:10;0.80;1.00
19878;DHT22;10101;52.204;9.910;2023-01-19T04:42:37;0.90;1.00
19878;DHT22;10101;52.204;9.910;2023-01-19T04:45:05;0.90;1.00
19878;DHT22;10101;52.204;9.910;2023-01-19T04:47:31;0.90;1.00
19878;DHT22;10101;52.204;9.910;2023-01-19T04:49:58;0.90;1.00
19878;DHT22;10101;52.204;9.910;2023-01-19T04:52:30;0.90;1.00
19878;DHT22;10101;52.204;9.910;2023-01-19T04:54:59;0.90;1.00
19878;DHT22;10101;52.204;9.910;2023-01-19T04:57:25;0.90;1.00
19878;DHT22;10101;52.204;9.910;2023-01-19T04:59:52;1.00;1.00
19878;DHT22;10101;52.204;9.910;2023-01-19T05:02:19;1.00;1.00
19878;DHT22;10101;52.204;9.910;2023-01-19T05:04:47;1.00;1.00
19878;DHT22;10101;52.204;9.910;2023-01-19T05:07:13;1.00;1.00
19878;DHT22;10101;52.204;9.910;2023-01-19T05:09:41;1.00;1.00
19878;DHT22;10101;52.204;9.910;2023-01-19T05:12:08;1.00;99.90
19878;DHT22;10101;52.204;9.910;2023-01-19T05:14:36;1.10;99.90
19878;DHT22;10101;52.204;9.910;2023-01-19T05:17:03;0.90;99.90
19878;DHT22;10101;52.204;9.910;2023-01-19T05:19:30;1.00;99.90
19878;DHT22;10101;52.204;9.910;2023-01-19T05:21:56;1.10;99.90
19878;DHT22;10101;52.204;9.910;2023-01-19T05:24:23;1.10;99.90
19878;DHT22;10101;52.204;9.910;2023-01-19T05:26:51;1.10;99.90
19878;DHT22;10101;52.204;9.910;2023-01-19T05:29:18;1.10;99.90
19878;DHT22;10101;52.204;9.910;2023-01-19T05:31:45;1.10;99.90
19878;DHT22;10101;52.204;9.910;2023-01-19T05:34:12;1.10;99.90
19878;DHT22;10101;52.204;9.910;2023-01-19T05:36:39;1.20;99.90
19878;DHT22;10101;52.204;9.910;2023-01-19T05:39:07;1.30;53.90
19878;DHT22;10101;52.204;9.910;2023-01-19T05:41:34;1.20;1.00
19878;DHT22;10101;52.204;9.910;2023-01-19T05:44:02;1.20;1.00
19878;DHT22;10101;52.204;9.910;2023-01-19T05:46:29;1.30;1.00
19878;DHT22;10101;52.204;9.910;2023-01-19T05:48:56;1.30;1.00
19878;DHT22;10101;52.204;9.910;2023-01-19T05:51:22;1.20;1.00
19878;DHT22;10101;52.204;9.910;2023-01-19T05:53:49;1.20;1.00
19878;DHT22;10101;52.204;9.910;2023-01-19T05:56:16;1.30;1.00
19878;DHT22;10101;52.204;9.910;2023-01-19T05:58:43;1.40;1.00
19878;DHT22;10101;52.204;9.910;2023-01-19T06:01:11;1.50;1.00
19878;DHT22;10101;52.204;9.910;2023-01-19T06:03:38;1.50;1.00
19878;DHT22;10101;52.204;9.910;2023-01-19T06:06:05;1.50;99.90
19878;DHT22;10101;52.204;9.910;2023-01-19T06:08:32;1.50;99.90
19878;DHT22;10101;52.204;9.910;2023-01-19T06:10:59;1.50;99.90
19878;DHT22;10101;52.204;9.910;2023-01-19T06:13:26;1.50;99.90
19878;DHT22;10101;52.204;9.910;2023-01-19T06:15:57;1.60;99.90
19878;DHT22;10101;52.204;9.910;2023-01-19T06:18:25;1.60;99.90
19878;DHT22;10101;52.204;9.910;2023-01-19T06:20:52;1.60;47.50
19878;DHT22;10101;52.204;9.910;2023-01-19T06:23:23;1.50;16.00
19878;DHT22;10101;52.204;9.910;2023-01-19T06:25:50;1.60;1.00
19878;DHT22;10101;52.204;9.910;2023-01-19T06:28:17;1.60;1.00
19878;DHT22;10101;52.204;9.910;2023-01-19T06:30:47;1.60;1.00
19878;DHT22;10101;52.204;9.910;2023-01-19T06:33:14;1.60;1.00
19878;DHT22;10101;52.204;9.910;2023-01-19T06:35:43;1.60;1.00
19878;DHT22;10101;52.204;9.910;2023-01-19T06:38:10;1.50;1.00
19878;DHT22;10101;52.204;9.910;2023-01-19T06:40:39;1.60;1.00
19878;DHT22;10101;52.204;9.910;2023-01-19T06:43:07;1.50;1.00
19878;DHT22;10101;52.204;9.910;2023-01-19T06:45:34;1.50;1.00
19878;DHT22;10101;52.204;9.910;2023-01-19T06:48:01;1.50;1.00
19878;DHT22;10101;52.204;9.910;2023-01-19T06:50:28;1.50;1.00
19878;DHT22;10101;52.204;9.910;2023-01-19T06:52:56;1.50;99.90
19878;DHT22;10101;52.204;9.910;2023-01-19T06:55:24;1.40;99.90
19878;DHT22;10101;52.204;9.910;2023-01-19T06:57:55;1.50;99.90
19878;DHT22;10101;52.204;9.910;2023-01-19T07:00:23;1.50;99.90
19878;DHT22;10101;52.204;9.910;2023-01-19T07:02:50;1.40;99.90
19878;DHT22;10101;52.204;9.910;2023-01-19T07:05:17;1.40;99.90
19878;DHT22;10101;52.204;9.910;2023-01-19T07:07:43;1.40;99.90
19878;DHT22;10101;52.204;9.910;2023-01-19T07:10:11;1.40;99.90
19878;DHT22;10101;52.204;9.910;2023-01-19T07:12:40;1.30;99.90
19878;DHT22;10101;52.204;9.910;2023-01-19T07:15:07;1.30;1.00
19878;DHT22;10101;52.204;9.910;2023-01-19T07:17:36;1.30;1.00
19878;DHT22;10101;52.204;9.910;2023-01-19T07:20:03;1.40;1.00
19878;DHT22;10101;52.204;9.910;2023-01-19T07:22:30;1.40;1.00
19878;DHT22;10101;52.204;9.910;2023-01-19T07:24:57;1.40;1.00
19878;DHT22;10101;52.204;9.910;2023-01-19T07:27:25;1.40;1.00
19878;DHT22;10101;52.204;9.910;2023-01-19T07:29:53;1.40;1.00
19878;DHT22;10101;52.204;9.910;2023-01-19T07:32:19;1.40;1.00
19878;DHT22;10101;52.204;9.910;2023-01-19T07:34:46;1.40;1.00
19878;DHT22;10101;52.204;9.910;2023-01-19T07:37:13;1.40;1.00
19878;DHT22;10101;52.204;9.910;2023-01-19T07:39:40;1.40;1.00
19878;DHT22;10101;52.204;9.910;2023-01-19T07:42:06;1.40;1.00
19878;DHT22;10101;52.204;9.910;2023-01-19T07:44:34;1.30;1.00
19878;DHT22;10101;52.204;9.910;2023-01-19T07:47:01;1.30;1.00
19878;DHT22;10101;52.204;9.910;2023-01-19T07:49:30;1.30;99.90
19878;DHT22;10101;52.204;9.910;2023-01-19T07:51:57;1.30;1.00
19878;DHT22;10101;52.204;9.910;2023-01-19T07:54:24;1.30;99.90
19878;DHT22;10101;52.204;9.910;2023-01-19T07:56:52;1.20;99.90
19878;DHT22;10101;52.204;9.910;2023-01-19T07:59:19;1.20;99.90
19878;DHT22;10101;52.204;9.910;2023-01-19T08:01:47;1.30;1.00
19878;DHT22;10101;52.204;9.910;2023-01-19T08:04:14;1.30;1.00
19878;DHT22;10101;52.204;9.910;2023-01-19T08:06:43;1.30;1.00
19878;DHT22;10101;52.204;9.910;2023-01-19T08:09:11;1.30;1.00
19878;DHT22;10101;52.204;9.910;2023-01-19T08:11:38;1.30;99.90
19878;DHT22;10101;52.204;9.910;2023-01-19T08:14:05;1.30;99.90
19878;DHT22;10101;52.204;9.910;2023-01-19T08:16:32;1.20;99.90
19878;DHT22;10101;52.204;9.910;2023-01-19T08:19:00;1.20;99.90
19878;DHT22;10101;52.204;9.910;2023-01-19T08:21:27;1.10;99.90
19878;DHT22;10101;52.204;9.910;2023-01-19T08:23:54;1.10;99.90
19878;DHT22;10101;52.204;9.910;2023-01-19T08:26:25;1.20;99.90
19878;DHT22;10101;52.204;9.910;2023-01-19T08:28:54;1.20;99.90
19878;DHT22;10101;52.204;9.910;2023-01-19T08:31:22;1.30;99.90
19878;DHT22;10101;52.204;9.910;2023-01-19T08:33:49;1.30;99.90
19878;DHT22;10101;52.204;9.910;2023-01-19T08:36:17;1.40;99.90
19878;DHT22;10101;52.204;9.910;2023-01-19T08:38:44;1.50;1.00
19878;DHT22;10101;52.204;9.910;2023-01-19T08:41:11;1.60;1.00
19878;DHT22;10101;52.204;9.910;2023-01-19T08:43:38;1.60;1.00
19878;DHT22;10101;52.204;9.910;2023-01-19T08:46:05;1.70;99.90
19878;DHT22;10101;52.204;9.910;2023-01-19T08:48:32;1.70;99.90
19878;DHT22;10101;52.204;9.910;2023-01-19T08:50:59;1.80;99.90
19878;DHT22;10101;52.204;9.910;2023-01-19T08:53:27;1.90;99.90
19878;DHT22;10101;52.204;9.910;2023-01-19T08:55:54;1.90;99.90
19878;DHT22;10101;52.204;9.910;2023-01-19T08:58:24;2.00;99.90
19878;DHT22;10101;52.204;9.910;2023-01-19T09:00:51;2.00;99.90
19878;DHT22;10101;52.204;9.910;2023-01-19T09:03:18;2.10;99.90
19878;DHT22;10101;52.204;9.910;2023-01-19T09:05:47;2.10;99.90
19878;DHT22;10101;52.204;9.910;2023-01-19T09:08:14;2.10;3.20
19878;DHT22;10101;52.204;9.910;2023-01-19T09:10:45;2.10;1.00
19878;DHT22;10101;52.204;9.910;2023-01-19T09:13:13;2.00;1.00
19878;DHT22;10101;52.204;9.910;2023-01-19T09:15:40;2.00;1.00
19878;DHT22;10101;52.204;9.910;2023-01-19T09:18:10;2.00;1.00
19878;DHT22;10101;52.204;9.910;2023-01-19T09:20:38;2.00;1.00
19878;DHT22;10101;52.204;9.910;2023-01-19T09:23:07;2.00;1.00
19878;DHT22;10101;52.204;9.910;2023-01-19T09:25:35;2.00;1.00
19878;DHT22;10101;52.204;9.910;2023-01-19T09:28:04;2.10;1.00
19878;DHT22;10101;52.204;9.910;2023-01-19T09:30:31;2.10;1.00
19878;DHT22;10101;52.204;9.910;2023-01-19T09:33:01;2.10;1.00
19878;DHT22;10101;52.204;9.910;2023-01-19T09:35:28;2.10;1.00
19878;DHT22;10101;52.204;9.910;2023-01-19T09:37:56;2.00;1.00
19878;DHT22;10101;52.204;9.910;2023-01-19T09:40:23;2.10;1.00
19878;DHT22;10101;52.204;9.910;2023-01-19T09:42:54;2.10;1.00
19878;DHT22;10101;52.204;9.910;2023-01-19T09:45:28;2.10;1.00
19878;DHT22;10101;52.204;9.910;2023-01-19T09:47:57;2.20;1.00
19878;DHT22;10101;52.204;9.910;2023-01-19T09:50:27;2.20;1.00
19878;DHT22;10101;52.204;9.910;2023-01-19T09:53:01;2.20;1.00
19878;DHT22;10101;52.204;9.910;2023-01-19T09:55:29;2.20;1.00
19878;DHT22;10101;52.204;9.910;2023-01-19T09:57:56;2.40;1.00
19878;DHT22;10101;52.204;9.910;2023-01-19T10:00:25;2.40;1.00
19878;DHT22;10101;52.204;9.910;2023-01-19T10:02:58;2.60;1.00
19878;DHT22;10101;52.204;9.910;2023-01-19T10:05:29;2.60;1.00
19878;DHT22;10101;52.204;9.910;2023-01-19T10:08:06;2.60;1.00
19878;DHT22;10101;52.204;9.910;2023-01-19T10:10:36;2.60;1.00
19878;DHT22;10101;52.204;9.910;2023-01-19T10:13:23;2.60;1.00
19878;DHT22;10101;52.204;9.910;2023-01-19T10:15:58;2.50;1.00
19878;DHT22;10101;52.204;9.910;2023-01-19T10:18:37;2.40;1.00
19878;DHT22;10101;52.204;9.910;2023-01-19T10:21:13;2.30;1.00
19878;DHT22;10101;52.204;9.910;2023-01-19T10:23:44;2.40;5.80
19878;DHT22;10101;52.204;9.910;2023-01-19T10:26:15;2.40;1.00
19878;DHT22;10101;52.204;9.910;2023-01-19T10:28:42;2.40;99.90
19878;DHT22;10101;52.204;9.910;2023-01-19T10:31:12;2.50;99.90
19878;DHT22;10101;52.204;9.910;2023-01-19T10:33:39;2.50;99.90
19878;DHT22;10101;52.204;9.910;2023-01-19T10:36:16;2.50;99.90
19878;DHT22;10101;52.204;9.910;2023-01-19T10:38:43;2.40;99.90
19878;DHT22;10101;52.204;9.910;2023-01-19T10:41:13;2.40;99.90
19878;DHT22;10101;52.204;9.910;2023-01-19T10:43:43;2.40;99.90
19878;DHT22;10101;52.204;9.910;2023-01-19T10:46:23;2.50;1.00
19878;DHT22;10101;52.204;9.910;2023-01-19T10:48:52;2.40;1.00
19878;DHT22;10101;52.204;9.910;2023-01-19T10:51:19;2.50;1.00
19878;DHT22;10101;52.204;9.910;2023-01-19T10:53:55;2.20;11.50
19878;DHT22;10101;52.204;9.910;2023-01-19T10:56:23;2.30;99.90
19878;DHT22;10101;52.204;9.910;2023-01-19T10:58:50;2.20;1.00
19878;DHT22;10101;52.204;9.910;2023-01-19T11:01:23;2.20;1.00
19878;DHT22;10101;52.204;9.910;2023-01-19T11:03:50;2.30;99.90
19878;DHT22;10101;52.204;9.910;2023-01-19T11:06:20;2.30;99.90
19878;DHT22;10101;52.204;9.910;2023-01-19T11:08:49;2.20;1.00
19878;DHT22;10101;52.204;9.910;2023-01-19T11:11:17;2.20;1.00
19878;DHT22;10101;52.204;9.910;2023-01-19T11:14:02;2.20;94.90
19878;DHT22;10101;52.204;9.910;2023-01-19T11:16:31;2.30;99.90
19878;DHT22;10101;52.204;9.910;2023-01-19T11:18:59;2.30;1.00
19878;DHT22;10101;52.204;9.910;2023-01-19T11:21:29;2.30;1.00
19878;DHT22;10101;52.204;9.910;2023-01-19T11:23:58;2.30;1.00
19878;DHT22;10101;52.204;9.910;2023-01-19T11:26:27;2.30;1.00
19878;DHT22;10101;52.204;9.910;2023-01-19T11:28:57;2.20;1.00
19878;DHT22;10101;52.204;9.910;2023-01-19T11:31:34;2.20;1.00
19878;DHT22;10101;52.204;9.910;2023-01-19T11:34:03;2.30;99.90
19878;DHT22;10101;52.204;9.910;2023-01-19T11:36:32;2.30;99.90
19878;DHT22;10101;52.204;9.910;2023-01-19T11:39:19;2.20;1.00
19878;DHT22;10101;52.204;9.910;2023-01-19T11:41:49;2.40;1.00
19878;DHT22;10101;52.204;9.910;2023-01-19T11:44:19;2.40;1.00
19878;DHT22;10101;52.204;9.910;2023-01-19T11:46:52;2.40;21.60
19878;DHT22;10101;52.204;9.910;2023-01-19T11:49:23;2.30;16.00
19878;DHT22;10101;52.204;9.910;2023-01-19T11:51:58;2.30;99.90
19878;DHT22;10101;52.204;9.910;2023-01-19T11:54:30;2.40;99.90
19878;DHT22;10101;52.204;9.910;2023-01-19T11:56:58;2.50;1.00
19878;DHT22;10101;52.204;9.910;2023-01-19T11:59:32;2.30;99.90
19878;DHT22;10101;52.204;9.910;2023-01-19T12:02:03;2.50;1.00
19878;DHT22;10101;52.204;9.910;2023-01-19T12:04:38;2.40;1.00
19878;DHT22;10101;52.204;9.910;2023-01-19T12:07:08;2.20;1.00
19878;DHT22;10101;52.204;9.910;2023-01-19T12:09:41;2.30;1.00
19878;DHT22;10101;52.204;9.910;2023-01-19T12:12:12;2.30;1.00
19878;DHT22;10101;52.204;9.910;2023-01-19T12:14:45;2.30;99.90
19878;DHT22;10101;52.204;9.910;2023-01-19T12:17:22;2.20;99.90
19878;DHT22;10101;52.204;9.910;2023-01-19T12:19:53;2.00;99.90
19878;DHT22;10101;52.204;9.910;2023-01-19T12:22:21;2.00;99.90
19878;DHT22;10101;52.204;9.910;2023-01-19T12:24:58;1.90;99.90
19878;DHT22;10101;52.204;9.910;2023-01-19T12:27:36;2.00;99.90
19878;DHT22;10101;52.204;9.910;2023-01-19T12:30:10;2.10;99.90
19878;DHT22;10101;52.204;9.910;2023-01-19T12:32:42;2.10;99.90
19878;DHT22;10101;52.204;9.910;2023-01-19T12:38:23;2.00;99.90
19878;DHT22;10101;52.204;9.910;2023-01-19T12:41:16;1.80;99.90
19878;DHT22;10101;52.204;9.910;2023-01-19T12:43:43;1.60;99.90
19878;DHT22;10101;52.204;9.910;2023-01-19T12:46:23;1.40;99.90
19878;DHT22;10101;52.204;9.910;2023-01-19T12:48:54;1.30;99.90
19878;DHT22;10101;52.204;9.910;2023-01-19T12:51:28;1.20;99.90
19878;DHT22;10101;52.204;9.910;2023-01-19T12:53:56;1.10;99.90
19878;DHT22;10101;52.204;9.910;2023-01-19T12:56:28;1.00;99.90
19878;DHT22;10101;52.204;9.910;2023-01-19T12:58:55;0.90;99.90
19878;DHT22;10101;52.204;9.910;2023-01-19T13:01:22;0.80;99.90
19878;DHT22;10101;52.204;9.910;2023-01-19T13:04:01;0.80;99.90
19878;DHT22;10101;52.204;9.910;2023-01-19T13:07:06;0.70;99.90
19878;DHT22;10101;52.204;9.910;2023-01-19T13:09:36;0.80;99.90
19878;DHT22;10101;52.204;9.910;2023-01-19T13:12:23;0.70;99.90
19878;DHT22;10101;52.204;9.910;2023-01-19T13:14:50;0.80;99.90
19878;DHT22;10101;52.204;9.910;2023-01-19T13:17:45;0.70;99.90
19878;DHT22;10101;52.204;9.910;2023-01-19T13:20:23;0.70;99.90
19878;DHT22;10101;52.204;9.910;2023-01-19T13:23:20;0.80;99.90
19878;DHT22;10101;52.204;9.910;2023-01-19T13:28:39;0.70;99.90
19878;DHT22;10101;52.204;9.910;2023-01-19T13:31:07;0.60;99.90
19878;DHT22;10101;52.204;9.910;2023-01-19T13:33:41;0.70;99.90
19878;DHT22;10101;52.204;9.910;2023-01-19T13:36:18;0.80;99.90
19878;DHT22;10101;52.204;9.910;2023-01-19T13:38:47;0.80;99.90
19878;DHT22;10101;52.204;9.910;2023-01-19T13:41:15;0.80;99.90
19878;DHT22;10101;52.204;9.910;2023-01-19T13:43:44;0.80;99.90
19878;DHT22;10101;52.204;9.910;2023-01-19T13:46:12;0.90;99.90
19878;DHT22;10101;52.204;9.910;2023-01-19T13:48:52;0.90;99.90
19878;DHT22;10101;52.204;9.910;2023-01-19T13:51:20;1.00;99.90
19878;DHT22;10101;52.204;9.910;2023-01-19T13:53:54;1.00;99.90
19878;DHT22;10101;52.204;9.910;2023-01-19T13:56:23;1.10;99.90
19878;DHT22;10101;52.204;9.910;2023-01-19T13:59:09;1.10;99.90
19878;DHT22;10101;52.204;9.910;2023-01-19T14:01:38;1.20;99.90
19878;DHT22;10101;52.204;9.910;2023-01-19T14:04:05;1.20;99.90
19878;DHT22;10101;52.204;9.910;2023-01-19T14:06:36;1.20;99.90
19878;DHT22;10101;52.204;9.910;2023-01-19T14:09:12;1.20;99.90
19878;DHT22;10101;52.204;9.910;2023-01-19T14:11:41;1.20;99.90
19878;DHT22;10101;52.204;9.910;2023-01-19T14:14:21;1.30;99.90
19878;DHT22;10101;52.204;9.910;2023-01-19T14:16:48;1.30;99.90
19878;DHT22;10101;52.204;9.910;2023-01-19T14:19:15;1.40;99.90
19878;DHT22;10101;52.204;9.910;2023-01-19T14:21:43;1.40;99.90
19878;DHT22;10101;52.204;9.910;2023-01-19T14:24:16;1.40;99.90
19878;DHT22;10101;52.204;9.910;2023-01-19T14:26:45;1.60;99.90
19878;DHT22;10101;52.204;9.910;2023-01-19T14:29:20;1.60;99.90
19878;DHT22;10101;52.204;9.910;2023-01-19T14:31:49;1.60;99.90
19878;DHT22;10101;52.204;9.910;2023-01-19T14:34:33;1.60;99.90
19878;DHT22;10101;52.204;9.910;2023-01-19T14:37:04;1.60;99.90
19878;DHT22;10101;52.204;9.910;2023-01-19T14:39:33;1.60;99.90
19878;DHT22;10101;52.204;9.910;2023-01-19T14:42:03;1.60;99.90
19878;DHT22;10101;52.204;9.910;2023-01-19T14:44:34;1.60;99.90
19878;DHT22;10101;52.204;9.910;2023-01-19T14:47:01;1.50;99.90
19878;DHT22;10101;52.204;9.910;2023-01-19T14:49:33;1.50;99.90
19878;DHT22;10101;52.204;9.910;2023-01-19T14:52:05;1.60;99.90
19878;DHT22;10101;52.204;9.910;2023-01-19T14:54:36;1.50;99.90
19878;DHT22;10101;52.204;9.910;2023-01-19T14:57:04;1.50;99.90
19878;DHT22;10101;52.204;9.910;2023-01-19T14:59:31;1.50;99.90
19878;DHT22;10101;52.204;9.910;2023-01-19T15:01:58;1.50;99.90
19878;DHT22;10101;52.204;9.910;2023-01-19T15:04:25;1.50;99.90
19878;DHT22;10101;52.204;9.910;2023-01-19T15:06:51;1.40;99.90
19878;DHT22;10101;52.204;9.910;2023-01-19T15:09:21;1.40;99.90
19878;DHT22;10101;52.204;9.910;2023-01-19T15:11:49;1.40;99.90
19878;DHT22;10101;52.204;9.910;2023-01-19T15:14:18;1.40;99.90
19878;DHT22;10101;52.204;9.910;2023-01-19T15:16:46;1.40;99.90
19878;DHT22;10101;52.204;9.910;2023-01-19T15:19:14;1.40;99.90
19878;DHT22;10101;52.204;9.910;2023-01-19T15:21:41;1.40;99.90
19878;DHT22;10101;52.204;9.910;2023-01-19T15:24:11;1.40;99.90
19878;DHT22;10101;52.204;9.910;2023-01-19T15:26:40;1.40;99.90
19878;DHT22;10101;52.204;9.910;2023-01-19T15:29:18;1.40;99.90
19878;DHT22;10101;52.204;9.910;2023-01-19T15:31:46;1.40;99.90
19878;DHT22;10101;52.204;9.910;2023-01-19T15:34:13;1.30;99.90
19878;DHT22;10101;52.204;9.910;2023-01-19T15:36:40;1.30;99.90
19878;DHT22;10101;52.204;9.910;2023-01-19T15:39:07;1.30;99.90
19878;DHT22;10101;52.204;9.910;2023-01-19T15:41:35;1.20;99.90
19878;DHT22;10101;52.204;9.910;2023-01-19T15:44:04;1.30;99.90
19878;DHT22;10101;52.204;9.910;2023-01-19T15:46:31;1.30;99.90
19878;DHT22;10101;52.204;9.910;2023-01-19T15:48:58;1.30;99.90
19878;DHT22;10101;52.204;9.910;2023-01-19T15:51:26;1.30;99.90
19878;DHT22;10101;52.204;9.910;2023-01-19T15:53:53;1.30;99.90
19878;DHT22;10101;52.204;9.910;2023-01-19T15:56:22;1.30;99.90
19878;DHT22;10101;52.204;9.910;2023-01-19T15:58:50;1.30;99.90
19878;DHT22;10101;52.204;9.910;2023-01-19T16:01:19;1.30;99.90
19878;DHT22;10101;52.204;9.910;2023-01-19T16:03:46;1.20;99.90
19878;DHT22;10101;52.204;9.910;2023-01-19T16:06:13;1.20;99.90
19878;DHT22;10101;52.204;9.910;2023-01-19T16:08:42;1.20;99.90
19878;DHT22;10101;52.204;9.910;2023-01-19T16:11:11;1.20;99.90
19878;DHT22;10101;52.204;9.910;2023-01-19T16:13:38;1.20;99.90